Aérodrome :
LOGIN :

S'inscrire | Disclaimer

   EN    FR    IT 

 










Légende :    VFR   VFR Marginal   IFR   IFR Intensif   IFR Très Intensif
Visi : 
Plafond : 
>= 8 km
>= 3000ft
5 à 8 km
1000 à 3000 ft
1500m à 5 km
500 à 1000 ft
800 à 1500m
200 à 500 ft
< 800m
< 200 ft
Symboles :   Orages  Brouillard  Fortes neiges  Fortes précipitations  Vent > 20 kt
SIGMETs :   Divers  Orages  Givrage  Turbulence  Onde Orograph.  Cendres Volcan.






- Altitude de l'aérodrome : 526 ft
- Code IATA : LTN


EGGW - London Luton

DERNIER METAR :
  • 142150Z AUTO 02006KT 350V080 0300 R08/0450 FG VV/// 02/02 Q1003

METARs EXPIRÉS :
  • 142120Z AUTO VRB03KT 0200 R08/0650 FG VV/// 03/02 Q1003
  • 142050Z AUTO 03004KT 360V090 0150 R08/0400 FG VV/// 03/03 Q1002
  • 142020Z AUTO 02007KT 360V090 0200 R08/0450 BCFG VV/// 03/03 Q1002
  • 141950Z 01005KT 0800 R08/1200 FG BKN001 BKN024 03/03 Q1002
  • 141920Z AUTO 03006KT 360V080 6000 SCT023 BKN028 03/03 Q1001
  • 141850Z 01005KT 350V120 8000 3800N NCD 03/02 Q1001

TAF TAF EGGW
Valide du 14 à 18h jusqu'au 15 à 18h UTC


141703Z 1418/1518 03008KT 9999 FEW012 SCT020
TEMPO 1418/1511 BKN004
PROB30
TEMPO 1419/1508 0300 FG DZ BKN001
BECMG 1510/1513 36017G27KT
ATIS : +44 1582 395 204



MET'MAP, la Météo Aéronautique d'un coup d'oeil ! - Copyright ORBIFLY Décembre 2007 - Disclaimer

ORBIFLY MET'MAP TEAM :

Programmation & Développement : Alexandra Zaïnal
Conception & Développement : Baudouin d'Aumeries
Co-Programmation & Développement : Marc-Olivier Méhu
Soutien technique & logistique : Manuel Goepfert

Contact : metmap@orbifly.com




SOURCES & CREDITS :

   NOAA